Time;durP1;ratioP1;P1;durP2;ratioP2;P2;SDS_P1;SDS_P2;PMS_P1;PMS_P2;Temp;Humidity;BMP_temperature;BMP_pressure;BME280_temperature;BME280_humidity;BME280_pressure;Samples;Min_cycle;Max_cycle;Signal;HPM_P1;HPM_P2
2021/06/13 00:01:54;;;;;;;10.20;5.72;;;17.60;70.50;;;;;;5071388;28;20034;-88
2021/06/13 00:04:20;;;;;;;12.82;5.40;;;17.60;70.70;;;;;;5062378;28;20057;-88
2021/06/13 00:06:45;;;;;;;11.35;5.38;;;17.60;70.70;;;;;;5024302;28;20198;-87
2021/06/13 00:09:11;;;;;;;12.63;5.95;;;17.60;70.90;;;;;;5054588;28;20377;-88
2021/06/13 00:11:37;;;;;;;10.20;5.38;;;17.50;70.90;;;;;;5043524;28;20079;-88
2021/06/13 00:14:04;;;;;;;11.10;5.63;;;17.50;71.20;;;;;;5054494;28;20043;-88
2021/06/13 00:16:30;;;;;;;12.23;5.63;;;17.50;71.30;;;;;;5057443;28;20017;-88
2021/06/13 00:18:55;;;;;;;12.68;5.47;;;17.40;71.30;;;;;;5038103;28;20025;-88
2021/06/13 00:21:21;;;;;;;14.70;5.50;;;17.40;71.30;;;;;;5054569;28;20029;-88
2021/06/13 00:23:47;;;;;;;12.13;5.47;;;17.40;71.40;;;;;;5054575;28;20048;-88
2021/06/13 00:26:12;;;;;;;11.75;5.05;;;17.40;71.40;;;;;;5054770;28;20033;-89
2021/06/13 00:28:38;;;;;;;12.68;5.45;;;17.30;71.60;;;;;;5065713;28;20055;-88
2021/06/13 00:31:04;;;;;;;12.25;5.63;;;17.30;71.80;;;;;;5051015;28;20029;-88
2021/06/13 00:33:30;;;;;;;14.23;5.45;;;17.30;72.10;;;;;;5054447;28;20077;-88
2021/06/13 00:35:56;;;;;;;15.43;6.47;;;17.20;72.10;;;;;;5054315;28;20029;-88
2021/06/13 00:38:22;;;;;;;12.32;5.72;;;17.20;72.40;;;;;;5061997;28;20159;-86
2021/06/13 00:40:48;;;;;;;12.00;5.60;;;17.20;72.40;;;;;;5071081;28;20040;-88
2021/06/13 00:43:13;;;;;;;12.50;5.50;;;17.10;72.70;;;;;;5071074;28;20028;-88
2021/06/13 00:45:39;;;;;;;10.93;5.15;;;17.10;72.60;;;;;;5054477;28;20086;-88
2021/06/13 00:48:05;;;;;;;13.23;5.75;;;17.10;72.80;;;;;;5054417;28;20056;-87
2021/06/13 00:50:38;;;;;;;13.57;6.38;;;17.00;72.80;;;;;;5054567;28;20029;-88
2021/06/13 00:53:06;;;;;;;13.52;5.97;;;17.00;72.90;;;;;;5054218;28;20016;-88
2021/06/13 00:55:32;;;;;;;13.45;5.28;;;16.90;73.00;;;;;;5054325;28;20016;-88
2021/06/13 00:57:59;;;;;;;13.73;6.28;;;16.90;73.20;;;;;;5054239;28;20025;-89
2021/06/13 01:00:25;;;;;;;10.40;5.45;;;16.90;73.30;;;;;;5054415;28;20045;-88
2021/06/13 01:02:51;;;;;;;11.13;5.80;;;16.80;73.20;;;;;;5071065;28;20033;-88
2021/06/13 01:05:16;;;;;;;14.68;5.57;;;16.80;73.50;;;;;;5066476;28;20473;-88
2021/06/13 01:07:54;;;;;;;16.10;6.72;;;16.70;73.40;;;;;;5054223;28;20029;-88
2021/06/13 01:10:41;;;;;;;11.65;5.32;;;16.60;73.70;;;;;;5071051;28;20031;-88
2021/06/13 01:13:48;;;;;;;12.20;5.50;;;16.60;74.00;;;;;;5071053;28;20508;-88
2021/06/13 01:16:32;;;;;;;11.77;5.93;;;16.60;74.40;;;;;;5046306;28;20039;-88
2021/06/13 01:19:19;;;;;;;11.63;5.60;;;16.50;74.50;;;;;;5048017;28;20123;-88
2021/06/13 01:22:26;;;;;;;13.15;6.10;;;16.50;74.70;;;;;;5089236;28;20032;-88
2021/06/13 01:25:21;;;;;;;15.48;6.13;;;16.40;74.80;;;;;;5074417;28;20029;-88
2021/06/13 01:30:16;;;;;;;18.25;6.57;;;16.30;75.00;;;;;;5035113;28;20041;-91
2021/06/13 01:32:42;;;;;;;15.02;6.78;;;16.30;75.20;;;;;;5000911;28;20021;-90
2021/06/13 01:35:14;;;;;;;11.70;5.95;;;16.30;75.40;;;;;;5001942;28;20045;-91
2021/06/13 01:37:43;;;;;;;13.10;6.60;;;16.20;75.50;;;;;;5018197;28;20444;-91
2021/06/13 01:40:12;;;;;;;12.38;6.22;;;16.20;75.60;;;;;;5029833;28;20029;-90
2021/06/13 01:42:41;;;;;;;12.48;6.10;;;16.20;75.90;;;;;;5002006;28;20033;-90
2021/06/13 01:45:13;;;;;;;13.18;6.47;;;16.20;75.70;;;;;;5018254;28;20013;-91
2021/06/13 01:47:40;;;;;;;11.85;6.57;;;16.10;75.80;;;;;;5028351;28;20482;-90
2021/06/13 01:50:07;;;;;;;14.55;6.78;;;16.10;75.80;;;;;;5035495;28;20506;-90
2021/06/13 01:52:36;;;;;;;10.48;5.97;;;16.10;75.90;;;;;;4985742;28;20033;-90
2021/06/13 01:55:02;;;;;;;13.70;6.70;;;16.00;76.00;;;;;;5018137;28;20513;-90
2021/06/13 01:57:29;;;;;;;15.57;6.80;;;16.00;76.50;;;;;;5001595;28;20029;-91
2021/06/13 01:59:57;;;;;;;11.90;6.63;;;16.00;77.30;;;;;;4985621;28;20031;-90
2021/06/13 02:02:25;;;;;;;12.57;6.60;;;15.90;76.60;;;;;;5009658;28;20123;-90
2021/06/13 02:04:51;;;;;;;19.75;7.38;;;15.90;76.50;;;;;;5007926;28;20040;-91
2021/06/13 02:07:19;;;;;;;14.52;7.43;;;15.90;76.50;;;;;;4985405;28;20037;-91
2021/06/13 02:09:47;;;;;;;12.95;6.40;;;15.90;76.70;;;;;;5017839;28;20010;-91
2021/06/13 02:12:13;;;;;;;14.40;6.93;;;15.80;76.80;;;;;;5017991;28;20034;-91
2021/06/13 02:14:43;;;;;;;12.10;7.05;;;15.80;77.00;;;;;;5017877;28;20030;-90
2021/06/13 02:17:09;;;;;;;13.82;7.13;;;15.80;77.10;;;;;;5017499;28;20029;-91
2021/06/13 02:19:37;;;;;;;13.88;6.75;;;15.80;77.20;;;;;;4981974;28;20032;-90
2021/06/13 02:22:03;;;;;;;12.65;6.70;;;15.80;77.40;;;;;;5025930;28;20060;-91
2021/06/13 02:24:32;;;;;;;14.20;7.47;;;15.70;77.30;;;;;;5013261;28;20026;-92
2021/06/13 02:26:59;;;;;;;16.73;7.45;;;15.70;77.50;;;;;;5028477;28;20460;-91
2021/06/13 02:29:26;;;;;;;16.92;7.63;;;15.70;77.50;;;;;;4985145;28;20049;-90
2021/06/13 02:31:54;;;;;;;18.25;7.35;;;15.70;77.80;;;;;;5001482;28;20033;-90
2021/06/13 02:34:23;;;;;;;13.82;6.63;;;15.70;77.80;;;;;;5016933;28;20173;-91
2021/06/13 02:36:51;;;;;;;12.05;6.40;;;15.70;77.80;;;;;;5025710;28;20021;-91
2021/06/13 02:39:18;;;;;;;13.05;6.78;;;15.60;78.10;;;;;;5033689;28;20075;-90
2021/06/13 02:41:44;;;;;;;14.88;6.30;;;15.60;78.00;;;;;;5023859;28;20041;-91
2021/06/13 02:44:10;;;;;;;12.30;6.60;;;15.60;78.10;;;;;;4990794;28;20029;-91
2021/06/13 02:46:36;;;;;;;15.10;6.70;;;15.60;78.00;;;;;;4997357;28;20041;-90
2021/06/13 02:49:08;;;;;;;13.68;6.85;;;15.60;78.20;;;;;;5009983;28;20029;-91
2021/06/13 02:51:37;;;;;;;12.82;6.13;;;15.50;78.20;;;;;;5005605;28;20025;-90
2021/06/13 02:54:10;;;;;;;12.45;6.65;;;15.50;78.40;;;;;;5034554;28;20097;-91
2021/06/13 02:56:45;;;;;;;14.38;6.75;;;15.50;78.30;;;;;;5033291;28;20064;-91
2021/06/13 02:59:57;;;;;;;12.02;6.25;;;15.40;78.30;;;;;;5023950;28;20025;-90
2021/06/13 03:02:26;;;;;;;12.73;6.97;;;15.40;78.50;;;;;;5013524;28;20044;-90
2021/06/13 03:04:53;;;;;;;14.80;6.97;;;15.40;78.60;;;;;;5016546;28;20029;-89
2021/06/13 03:07:20;;;;;;;11.93;5.93;;;15.30;78.70;;;;;;5000436;28;20021;-90
2021/06/13 03:09:49;;;;;;;14.07;6.55;;;15.30;78.80;;;;;;4998558;28;20053;-90
2021/06/13 03:12:16;;;;;;;15.27;6.43;;;15.30;78.90;;;;;;5034147;28;20013;-90
2021/06/13 03:14:43;;;;;;;15.95;6.43;;;15.30;78.90;;;;;;4997124;28;20030;-90
2021/06/13 03:17:10;;;;;;;13.32;6.65;;;15.20;79.00;;;;;;5034299;28;20483;-90
2021/06/13 03:19:39;;;;;;;17.42;6.93;;;15.30;79.20;;;;;;4996827;28;20025;-90
2021/06/13 03:22:05;;;;;;;12.10;6.22;;;15.20;79.10;;;;;;5029533;28;20068;-90
2021/06/13 03:24:33;;;;;;;13.18;6.07;;;15.20;79.20;;;;;;5024300;28;20052;-90
2021/06/13 03:26:59;;;;;;;10.20;6.25;;;15.10;79.30;;;;;;5018853;28;20022;-91
2021/06/13 03:29:26;;;;;;;16.98;6.40;;;15.10;79.60;;;;;;4983741;28;20148;-91
2021/06/13 03:31:54;;;;;;;11.52;6.72;;;15.10;79.50;;;;;;5028356;28;20386;-90
2021/06/13 03:34:20;;;;;;;13.43;6.70;;;15.10;79.60;;;;;;5032821;28;20041;-90
2021/06/13 03:36:48;;;;;;;11.68;6.18;;;15.00;79.60;;;;;;5022123;28;20080;-90
2021/06/13 03:39:15;;;;;;;13.13;6.32;;;15.00;79.80;;;;;;4983172;28;20040;-90
2021/06/13 03:41:41;;;;;;;10.40;6.07;;;15.00;79.90;;;;;;4976575;28;20033;-91
2021/06/13 03:44:08;;;;;;;13.65;6.95;;;15.00;80.00;;;;;;4999593;28;20083;-90
2021/06/13 03:46:36;;;;;;;11.20;6.53;;;15.00;80.10;;;;;;4979637;28;20033;-89
2021/06/13 03:49:02;;;;;;;17.45;7.55;;;14.90;80.40;;;;;;4993049;28;20057;-90
2021/06/13 03:51:28;;;;;;;12.05;6.30;;;14.90;80.50;;;;;;5002430;28;20028;-91
2021/06/13 03:53:57;;;;;;;17.17;6.93;;;14.90;80.60;;;;;;4999693;28;20030;-90
2021/06/13 03:56:45;;;;;;;14.05;6.28;;;14.90;80.90;;;;;;5016090;28;20538;-91
2021/06/13 03:59:11;;;;;;;12.48;6.60;;;14.90;81.20;;;;;;5016644;28;20415;-91
2021/06/13 04:01:41;;;;;;;13.02;6.82;;;14.90;81.20;;;;;;5030853;28;20036;-90
2021/06/13 04:04:09;;;;;;;14.05;6.35;;;14.80;81.20;;;;;;5000649;28;20030;-90
2021/06/13 04:06:36;;;;;;;14.13;6.90;;;14.80;81.40;;;;;;5030386;28;20114;-90
2021/06/13 04:09:03;;;;;;;11.55;6.45;;;14.80;81.60;;;;;;4980452;28;20026;-90
2021/06/13 04:11:31;;;;;;;12.02;5.80;;;14.80;81.70;;;;;;4995799;28;20017;-91
2021/06/13 04:13:58;;;;;;;12.15;6.20;;;14.80;81.90;;;;;;5015779;28;20466;-91
2021/06/13 04:16:24;;;;;;;11.02;6.45;;;14.80;82.10;;;;;;5015772;28;20022;-90
2021/06/13 04:18:51;;;;;;;12.52;6.28;;;14.80;82.20;;;;;;4996736;28;20121;-91
2021/06/13 04:21:18;;;;;;;12.93;5.60;;;14.80;82.50;;;;;;4976553;28;20117;-90
2021/06/13 04:23:45;;;;;;;12.40;6.22;;;14.80;82.60;;;;;;5000573;28;20044;-91
2021/06/13 04:26:16;;;;;;;14.48;6.53;;;14.80;82.70;;;;;;4988742;28;20041;-90
2021/06/13 04:28:43;;;;;;;13.38;6.78;;;14.80;82.70;;;;;;5013011;28;20542;-91
2021/06/13 04:31:14;;;;;;;13.70;6.68;;;14.80;82.80;;;;;;5015858;28;20030;-90
2021/06/13 04:33:45;;;;;;;11.98;5.93;;;14.80;83.00;;;;;;4999106;28;20030;-91
2021/06/13 04:36:12;;;;;;;16.58;6.22;;;14.80;83.30;;;;;;5026097;28;20052;-90
2021/06/13 04:38:38;;;;;;;13.40;6.20;;;14.80;83.50;;;;;;5015332;28;20025;-90
2021/06/13 04:41:05;;;;;;;14.95;6.85;;;14.80;83.80;;;;;;5015285;28;20471;-91
2021/06/13 04:43:33;;;;;;;11.30;5.82;;;14.90;83.90;;;;;;4995909;28;20022;-90
2021/06/13 04:45:59;;;;;;;13.23;6.22;;;14.90;83.90;;;;;;5023789;28;20025;-91
2021/06/13 04:48:25;;;;;;;13.80;6.30;;;14.90;84.80;;;;;;4994371;28;20026;-90
2021/06/13 04:50:52;;;;;;;11.15;6.20;;;14.90;84.20;;;;;;4982650;28;20037;-91
2021/06/13 04:53:47;;;;;;;15.77;6.60;;;14.90;84.10;;;;;;5015353;28;20021;-90
2021/06/13 04:56:52;;;;;;;12.65;6.03;;;14.90;84.20;;;;;;5015928;28;20091;-90
2021/06/13 04:59:17;;;;;;;16.38;5.97;;;15.00;84.40;;;;;;5010292;28;20076;-90
2021/06/13 05:01:43;;;;;;;10.82;6.07;;;15.00;84.10;;;;;;5002882;28;20022;-91
2021/06/13 05:04:10;;;;;;;10.77;5.60;;;15.00;84.30;;;;;;5002684;28;20029;-90
2021/06/13 05:06:39;;;;;;;10.25;5.72;;;15.00;84.40;;;;;;4999323;28;20054;-90
2021/06/13 05:09:05;;;;;;;12.57;6.38;;;15.00;84.40;;;;;;4993302;28;20032;-90
2021/06/13 05:11:30;;;;;;;10.52;5.47;;;15.10;84.60;;;;;;5001261;28;20022;-91
2021/06/13 05:13:56;;;;;;;11.18;5.53;;;15.10;84.60;;;;;;4986335;28;20017;-91
2021/06/13 05:16:22;;;;;;;11.75;6.03;;;15.10;84.60;;;;;;5029533;28;20022;-91
2021/06/13 05:18:47;;;;;;;11.63;5.53;;;15.10;84.80;;;;;;5002401;28;20036;-91
2021/06/13 05:21:13;;;;;;;12.10;5.88;;;15.10;84.80;;;;;;5018735;28;20029;-91
2021/06/13 05:23:39;;;;;;;13.43;5.85;;;15.10;85.60;;;;;;4986234;28;20022;-91
2021/06/13 05:26:04;;;;;;;11.27;5.35;;;15.10;85.00;;;;;;4999127;28;20112;-91
2021/06/13 05:28:31;;;;;;;10.57;5.43;;;15.10;85.00;;;;;;4997939;28;20050;-91
2021/06/13 05:30:57;;;;;;;11.98;5.22;;;15.20;85.10;;;;;;5035071;28;20020;-91
2021/06/13 05:33:23;;;;;;;9.02;4.80;;;15.20;85.30;;;;;;5007928;28;20037;-91
2021/06/13 05:35:50;;;;;;;9.60;5.43;;;15.20;85.40;;;;;;5002666;28;20025;-90
2021/06/13 05:38:16;;;;;;;13.00;5.43;;;15.30;85.50;;;;;;5018792;28;20466;-91
2021/06/13 05:40:42;;;;;;;10.75;5.65;;;15.30;85.60;;;;;;4982825;28;20475;-90
2021/06/13 05:43:09;;;;;;;9.90;4.82;;;15.40;85.60;;;;;;5021466;28;20024;-90
2021/06/13 05:45:36;;;;;;;9.07;4.57;;;15.40;85.90;;;;;;5034647;28;20029;-90
2021/06/13 05:48:02;;;;;;;11.65;4.60;;;15.40;85.80;;;;;;5020902;28;20360;-91
2021/06/13 05:50:29;;;;;;;10.75;4.97;;;15.50;86.00;;;;;;5035973;28;20021;-90
2021/06/13 05:52:55;;;;;;;10.65;5.95;;;15.50;86.10;;;;;;5018220;28;20013;-90
2021/06/13 05:55:21;;;;;;;9.25;4.85;;;15.60;86.10;;;;;;5009374;28;20026;-90
2021/06/13 05:57:48;;;;;;;10.77;4.70;;;15.60;86.00;;;;;;5030997;28;20034;-89
2021/06/13 06:00:20;;;;;;;9.93;4.72;;;15.60;85.90;;;;;;5035705;28;20032;-90
2021/06/13 06:02:46;;;;;;;8.95;4.50;;;15.70;85.90;;;;;;5035679;28;20040;-90
2021/06/13 06:05:14;;;;;;;8.80;4.07;;;15.80;85.70;;;;;;5021132;28;20037;-90
2021/06/13 06:07:40;;;;;;;9.27;4.57;;;15.80;85.80;;;;;;5033548;28;20148;-91
2021/06/13 06:10:06;;;;;;;9.40;5.07;;;15.80;86.40;;;;;;5003129;28;20025;-91
2021/06/13 06:12:33;;;;;;;10.90;4.72;;;15.90;85.90;;;;;;5018368;28;20029;-90
2021/06/13 06:14:58;;;;;;;8.02;4.28;;;15.90;86.00;;;;;;5018060;28;20033;-91
2021/06/13 06:17:24;;;;;;;9.45;4.00;;;16.00;86.10;;;;;;5017734;28;20029;-90
2021/06/13 06:19:50;;;;;;;9.63;4.03;;;16.00;86.00;;;;;;5017983;28;20033;-90
2021/06/13 06:22:16;;;;;;;8.70;4.30;;;16.10;85.70;;;;;;5035098;28;20030;-91
2021/06/13 06:24:42;;;;;;;10.40;4.35;;;16.10;85.70;;;;;;5029480;28;20108;-90
2021/06/13 06:27:08;;;;;;;11.45;5.30;;;16.20;85.50;;;;;;5001123;28;20061;-90
2021/06/13 06:29:33;;;;;;;11.25;4.47;;;16.20;85.10;;;;;;4997418;28;20038;-90
2021/06/13 06:31:59;;;;;;;7.82;4.00;;;16.30;85.10;;;;;;4993776;28;20026;-91
2021/06/13 06:34:26;;;;;;;10.80;4.40;;;16.30;85.00;;;;;;5001860;28;20365;-91
2021/06/13 06:36:51;;;;;;;7.88;4.05;;;16.40;85.00;;;;;;5026982;28;20033;-90
2021/06/13 06:39:18;;;;;;;9.07;4.30;;;16.40;85.10;;;;;;5000940;28;20391;-91
2021/06/13 06:41:43;;;;;;;8.75;4.03;;;16.50;84.90;;;;;;5017040;28;20030;-90
2021/06/13 06:44:10;;;;;;;7.38;4.05;;;16.50;84.70;;;;;;5016932;28;20029;-91
2021/06/13 06:46:36;;;;;;;13.27;4.13;;;16.60;84.50;;;;;;4997458;28;20040;-90
2021/06/13 06:49:04;;;;;;;10.88;4.40;;;16.70;84.30;;;;;;5000683;28;20095;-90
2021/06/13 06:51:30;;;;;;;8.88;4.75;;;16.70;84.00;;;;;;5000838;28;20079;-90
2021/06/13 06:53:57;;;;;;;8.50;4.00;;;16.80;83.50;;;;;;5034669;28;20086;-90
2021/06/13 06:56:26;;;;;;;9.13;4.50;;;16.80;83.10;;;;;;5031460;28;20474;-90
2021/06/13 06:58:53;;;;;;;7.38;3.60;;;16.80;83.00;;;;;;5026733;28;20473;-90
2021/06/13 07:01:19;;;;;;;8.82;4.00;;;16.90;82.90;;;;;;5029402;28;20049;-91
2021/06/13 07:03:47;;;;;;;9.50;3.60;;;17.00;82.60;;;;;;4997289;28;20458;-90
2021/06/13 07:06:13;;;;;;;10.40;4.10;;;17.00;81.70;;;;;;5011763;28;20113;-91
2021/06/13 07:08:39;;;;;;;9.15;4.00;;;17.00;81.10;;;;;;5000511;28;20029;-90
2021/06/13 07:11:08;;;;;;;10.00;4.00;;;17.10;81.00;;;;;;5016941;28;20018;-90
2021/06/13 07:13:34;;;;;;;9.25;4.18;;;17.20;80.20;;;;;;4997325;28;20014;-90
2021/06/13 07:16:00;;;;;;;11.00;3.80;;;17.20;79.90;;;;;;5008201;28;20053;-89
2021/06/13 07:18:27;;;;;;;7.85;3.78;;;17.30;79.20;;;;;;5000244;28;20128;-90
2021/06/13 07:20:56;;;;;;;8.95;3.75;;;17.40;78.70;;;;;;5027373;28;20104;-90
2021/06/13 07:23:22;;;;;;;8.85;4.68;;;17.40;78.20;;;;;;4998656;28;20064;-90
2021/06/13 07:25:48;;;;;;;9.68;3.97;;;17.50;78.20;;;;;;5016966;28;20070;-90
2021/06/13 07:28:16;;;;;;;7.20;3.30;;;17.50;78.40;;;;;;5040458;22;21122;-87
2021/06/13 07:30:42;;;;;;;6.82;3.10;;;17.70;78.70;;;;;;5058163;28;20024;-88
2021/06/13 07:33:08;;;;;;;7.78;3.88;;;17.70;78.70;;;;;;5072196;28;20078;-88
2021/06/13 07:35:34;;;;;;;8.48;3.92;;;17.90;78.70;;;;;;5071681;28;20093;-88
2021/06/13 07:38:01;;;;;;;10.80;4.18;;;18.00;78.50;;;;;;5055178;28;20032;-88
2021/06/13 07:40:28;;;;;;;8.48;3.80;;;18.00;77.40;;;;;;5071847;28;20134;-88
2021/06/13 07:42:54;;;;;;;8.48;3.70;;;18.10;77.00;;;;;;5051762;28;20032;-88
2021/06/13 07:45:20;;;;;;;8.90;3.50;;;18.20;76.90;;;;;;5055008;28;20017;-88
2021/06/13 07:47:46;;;;;;;7.32;3.35;;;18.30;77.10;;;;;;5038235;28;20032;-88
2021/06/13 07:50:14;;;;;;;6.70;3.50;;;18.40;76.30;;;;;;5071734;28;20024;-88
2021/06/13 07:52:41;;;;;;;8.65;4.00;;;18.50;75.90;;;;;;5071596;28;20021;-88
2021/06/13 07:55:07;;;;;;;8.40;3.47;;;18.70;75.90;;;;;;5064438;28;20458;-88
2021/06/13 07:57:33;;;;;;;10.00;3.92;;;18.80;75.20;;;;;;5044692;28;20029;-88
2021/06/13 07:59:59;;;;;;;10.40;3.55;;;18.80;72.10;;;;;;5051274;28;20048;-88
2021/06/13 08:02:24;;;;;;;7.35;3.42;;;18.90;72.30;;;;;;5054745;28;20028;-88
2021/06/13 08:04:56;;;;;;;8.93;4.22;;;18.90;71.70;;;;;;5054467;28;20489;-88
2021/06/13 08:07:23;;;;;;;9.27;3.70;;;18.90;71.30;;;;;;5061510;28;20029;-88
2021/06/13 08:09:48;;;;;;;6.47;3.47;;;18.90;71.70;;;;;;5050726;28;20021;-88
2021/06/13 08:12:15;;;;;;;9.35;3.88;;;18.90;71.70;;;;;;5071153;28;20029;-88
2021/06/13 08:14:44;;;;;;;9.48;3.92;;;19.00;71.70;;;;;;5071161;28;20032;-88
2021/06/13 08:17:10;;;;;;;8.32;3.80;;;19.00;71.20;;;;;;5051239;28;20031;-87
2021/06/13 08:19:35;;;;;;;9.93;3.78;;;19.00;70.10;;;;;;5054522;28;20029;-88
2021/06/13 08:22:01;;;;;;;9.13;3.50;;;19.10;69.90;;;;;;5051080;28;20056;-88
2021/06/13 08:24:27;;;;;;;6.35;2.80;;;19.10;69.20;;;;;;5037881;28;20039;-88
2021/06/13 08:26:53;;;;;;;7.18;3.33;;;19.20;69.40;;;;;;5053578;28;20075;-87
2021/06/13 08:29:19;;;;;;;9.88;3.80;;;19.30;70.40;;;;;;5070822;28;20068;-88
2021/06/13 08:31:44;;;;;;;8.18;3.58;;;19.40;70.60;;;;;;5053782;28;20470;-87
2021/06/13 08:34:10;;;;;;;11.32;3.95;;;19.60;70.50;;;;;;5051061;28;20783;-88
2021/06/13 08:36:36;;;;;;;7.75;3.50;;;19.70;69.30;;;;;;5080204;28;20065;-87
2021/06/13 08:39:02;;;;;;;8.65;3.22;;;19.80;69.30;;;;;;5070981;28;20020;-88
2021/06/13 08:41:28;;;;;;;7.05;3.47;;;19.90;69.50;;;;;;5070750;28;20111;-88
2021/06/13 08:44:07;;;;;;;7.45;3.15;;;20.00;68.80;;;;;;5071014;28;20132;-88
2021/06/13 08:46:36;;;;;;;8.88;3.30;;;20.10;66.20;;;;;;5070931;28;20103;-88
2021/06/13 08:49:02;;;;;;;8.85;3.53;;;20.10;66.10;;;;;;5070743;28;20028;-87
2021/06/13 08:51:28;;;;;;;8.15;3.63;;;20.20;65.50;;;;;;5053935;28;20029;-88
2021/06/13 08:53:53;;;;;;;6.80;3.33;;;20.20;66.20;;;;;;5037649;28;20040;-88
2021/06/13 08:56:22;;;;;;;8.40;3.60;;;20.20;66.20;;;;;;5070518;28;20024;-88
2021/06/13 08:58:49;;;;;;;6.80;3.33;;;20.30;67.00;;;;;;5070774;28;20035;-88
2021/06/13 09:01:15;;;;;;;6.93;3.15;;;20.30;66.40;;;;;;5070613;28;20123;-88
2021/06/13 09:03:42;;;;;;;7.13;3.63;;;20.50;66.90;;;;;;5054052;28;20040;-88
2021/06/13 09:06:09;;;;;;;10.52;3.65;;;20.50;66.80;;;;;;5050476;28;20036;-88
2021/06/13 09:08:36;;;;;;;6.88;3.00;;;20.60;67.20;;;;;;5053925;28;20029;-88
2021/06/13 09:11:03;;;;;;;6.53;3.25;;;20.70;67.00;;;;;;5054264;28;20017;-88
2021/06/13 09:13:30;;;;;;;10.50;4.03;;;20.80;67.40;;;;;;5070465;28;20013;-88
2021/06/13 09:16:01;;;;;;;8.80;3.40;;;20.90;65.40;;;;;;5054040;28;20021;-88
2021/06/13 09:18:46;;;;;;;7.88;3.60;;;21.00;64.50;;;;;;5070412;28;20024;-88
2021/06/13 09:21:18;;;;;;;7.78;3.45;;;21.00;64.40;;;;;;5070879;28;20416;-88
2021/06/13 09:23:44;;;;;;;6.53;3.05;;;21.00;64.10;;;;;;5070505;28;20174;-88
2021/06/13 09:26:19;;;;;;;6.70;2.88;;;21.10;64.90;;;;;;5069915;28;20107;-88
2021/06/13 09:28:47;;;;;;;9.82;3.75;;;21.20;65.10;;;;;;5061380;28;20045;-88
2021/06/13 09:31:23;;;;;;;7.57;3.20;;;21.30;61.20;;;;;;5070412;28;20112;-88
2021/06/13 09:33:51;;;;;;;7.28;3.13;;;21.30;59.00;;;;;;5070432;28;20020;-88
2021/06/13 09:36:20;;;;;;;6.88;3.80;;;21.30;61.80;;;;;;5070358;28;20056;-88
2021/06/13 09:38:47;;;;;;;8.85;3.25;;;21.30;62.40;;;;;;5070519;28;20012;-88
2021/06/13 09:41:15;;;;;;;7.82;3.40;;;21.30;61.90;;;;;;5053831;28;20029;-88
2021/06/13 09:43:45;;;;;;;7.82;3.53;;;21.30;61.30;;;;;;5071502;28;20036;-88
2021/06/13 09:46:13;;;;;;;8.10;3.28;;;21.30;62.20;;;;;;5070344;28;20068;-88
2021/06/13 09:48:40;;;;;;;6.93;3.63;;;21.40;62.80;;;;;;5063486;28;20385;-87
2021/06/13 09:51:21;;;;;;;6.35;3.10;;;21.50;63.00;;;;;;5074941;28;20350;-88
2021/06/13 09:53:55;;;;;;;6.43;3.30;;;21.60;63.50;;;;;;5073787;28;20044;-88
2021/06/13 09:56:31;;;;;;;8.50;3.60;;;21.70;63.40;;;;;;5057006;28;20040;-88
2021/06/13 09:59:07;;;;;;;10.65;3.80;;;21.80;61.60;;;;;;5073712;28;20043;-89
2021/06/13 10:01:34;;;;;;;7.53;3.45;;;21.80;60.80;;;;;;5059460;28;20107;-89
2021/06/13 10:04:00;;;;;;;9.30;3.92;;;21.90;59.70;;;;;;5073823;28;20029;-89
2021/06/13 10:06:35;;;;;;;10.25;4.13;;;21.80;59.20;;;;;;5055220;28;20028;-88
2021/06/13 10:09:04;;;;;;;10.63;4.13;;;21.80;58.60;;;;;;5062339;28;20035;-89
2021/06/13 10:11:30;;;;;;;9.40;3.80;;;21.70;59.20;;;;;;5059270;28;20009;-88
2021/06/13 10:13:59;;;;;;;6.78;3.72;;;21.60;58.80;;;;;;5056941;28;20531;-89
2021/06/13 10:16:45;;;;;;;8.20;3.50;;;21.70;60.70;;;;;;5059380;28;20033;-88
2021/06/13 10:19:14;;;;;;;9.43;3.80;;;21.70;57.70;;;;;;5053584;28;20052;-88
2021/06/13 10:21:44;;;;;;;7.93;3.50;;;21.70;59.10;;;;;;5068447;28;20410;-89
2021/06/13 10:24:22;;;;;;;8.03;3.30;;;21.70;58.60;;;;;;5073541;28;20074;-89
2021/06/13 10:26:53;;;;;;;8.27;3.63;;;21.80;59.10;;;;;;5073014;28;20020;-87
2021/06/13 10:29:20;;;;;;;7.28;3.58;;;21.90;60.00;;;;;;5074592;28;20091;-88
2021/06/13 10:31:51;;;;;;;7.82;3.42;;;21.90;60.20;;;;;;5056390;28;20020;-88
2021/06/13 10:34:19;;;;;;;10.30;3.55;;;22.00;60.00;;;;;;5065993;28;20032;-87
2021/06/13 10:36:46;;;;;;;5.47;3.03;;;22.10;59.90;;;;;;5048904;28;20028;-88
2021/06/13 10:39:14;;;;;;;6.28;3.10;;;22.30;60.10;;;;;;5072916;28;20032;-88
2021/06/13 10:41:40;;;;;;;6.53;3.13;;;22.40;60.00;;;;;;5072859;28;20027;-87
2021/06/13 10:44:14;;;;;;;7.00;3.30;;;22.40;59.00;;;;;;5059777;28;20153;-88
2021/06/13 10:46:43;;;;;;;6.75;3.50;;;22.50;58.00;;;;;;5072772;28;20020;-87
2021/06/13 10:49:38;;;;;;;9.15;3.80;;;22.50;57.20;;;;;;5072564;28;20028;-86
2021/06/13 10:52:14;;;;;;;7.13;3.10;;;22.50;56.50;;;;;;5072310;28;20112;-87
2021/06/13 10:54:50;;;;;;;8.88;3.22;;;22.50;57.10;;;;;;5072066;28;20545;-87
2021/06/13 10:57:15;;;;;;;8.63;3.42;;;22.50;56.70;;;;;;5072434;28;20029;-87
2021/06/13 11:00:01;;;;;;;7.55;3.40;;;22.60;57.10;;;;;;5072347;28;20055;-87
2021/06/13 11:02:34;;;;;;;5.38;3.10;;;22.60;58.50;;;;;;5071806;28;20493;-87
2021/06/13 11:05:02;;;;;;;7.22;3.05;;;22.70;58.40;;;;;;5059113;28;20047;-89
2021/06/13 11:07:28;;;;;;;6.50;3.17;;;22.90;59.00;;;;;;5058983;28;20025;-88
2021/06/13 11:10:09;;;;;;;6.70;3.22;;;23.00;59.00;;;;;;5088539;28;20028;-87
2021/06/13 11:12:39;;;;;;;6.28;3.15;;;23.10;57.00;;;;;;5073642;28;20024;-87
2021/06/13 11:15:09;;;;;;;8.15;3.53;;;23.20;56.70;;;;;;5058016;28;20094;-88
2021/06/13 11:17:54;;;;;;;7.70;3.42;;;23.20;56.90;;;;;;5056078;28;20036;-87
2021/06/13 11:20:36;;;;;;;5.90;3.22;;;23.30;55.70;;;;;;5060401;28;20035;-88
2021/06/13 11:23:12;;;;;;;6.70;3.30;;;23.30;55.50;;;;;;5056663;28;20029;-87
2021/06/13 11:25:40;;;;;;;6.28;3.47;;;23.30;53.90;;;;;;5060562;28;20021;-87
2021/06/13 11:28:13;;;;;;;6.80;3.22;;;23.30;55.00;;;;;;5072778;28;20024;-88
2021/06/13 11:30:45;;;;;;;8.50;3.83;;;23.40;55.50;;;;;;5071774;28;20033;-87
2021/06/13 11:33:11;;;;;;;6.95;3.60;;;23.40;54.30;;;;;;5071693;28;20350;-87
2021/06/13 11:35:46;;;;;;;5.65;3.17;;;23.40;54.50;;;;;;5057561;28;20105;-87
2021/06/13 11:38:12;;;;;;;8.32;3.40;;;23.40;54.70;;;;;;5035077;28;20025;-87
2021/06/13 11:40:50;;;;;;;8.10;3.63;;;23.40;54.10;;;;;;5065700;28;20116;-87
2021/06/13 11:43:18;;;;;;;6.80;3.10;;;23.40;54.30;;;;;;5061326;28;20035;-87
2021/06/13 11:45:54;;;;;;;8.05;3.70;;;23.50;54.00;;;;;;5055274;28;20159;-88
2021/06/13 11:48:31;;;;;;;5.95;3.45;;;23.40;53.80;;;;;;5062521;28;20477;-87
2021/06/13 11:51:00;;;;;;;7.03;3.40;;;23.50;54.00;;;;;;5057339;28;20680;-87
2021/06/13 11:53:48;;;;;;;6.88;3.13;;;23.50;54.10;;;;;;5071338;28;20072;-87
2021/06/13 11:56:41;;;;;;;9.55;3.63;;;23.60;55.20;;;;;;5068079;28;20448;-87
2021/06/13 11:59:20;;;;;;;6.82;3.35;;;23.60;53.70;;;;;;5063913;28;20093;-87
2021/06/13 12:02:05;;;;;;;9.65;3.22;;;23.70;53.70;;;;;;5071384;28;20024;-87
2021/06/13 12:04:31;;;;;;;6.72;3.30;;;23.80;53.50;;;;;;5071444;28;20489;-87
2021/06/13 12:06:58;;;;;;;5.80;3.05;;;23.80;52.80;;;;;;5071903;28;20056;-87
2021/06/13 12:09:26;;;;;;;6.93;3.40;;;23.90;53.30;;;;;;5072482;28;20481;-87
2021/06/13 12:11:59;;;;;;;7.43;3.42;;;23.90;53.00;;;;;;5065370;28;20063;-87
2021/06/13 12:14:45;;;;;;;8.93;3.88;;;24.00;52.70;;;;;;5049302;28;20431;-87
2021/06/13 12:17:14;;;;;;;6.05;3.00;;;23.90;52.60;;;;;;5043508;28;20489;-87
2021/06/13 12:19:49;;;;;;;7.57;3.70;;;23.90;53.80;;;;;;5071185;28;20021;-87
2021/06/13 12:27:40;;;;;;;7.78;4.05;;;24.10;52.70;;;;;;5072384;28;20036;-88
2021/06/13 12:30:20;;;;;;;8.00;3.65;;;24.10;52.70;;;;;;5070785;28;20573;-87
2021/06/13 12:32:56;;;;;;;7.20;3.10;;;24.10;51.80;;;;;;5071126;28;20020;-88
2021/06/13 12:35:35;;;;;;;7.65;3.55;;;24.10;51.00;;;;;;5071639;28;20049;-87
2021/06/13 12:38:06;;;;;;;6.40;3.08;;;24.10;51.10;;;;;;5051186;28;20017;-88
2021/06/13 12:40:35;;;;;;;6.68;3.30;;;24.10;52.20;;;;;;5066466;28;20090;-87
2021/06/13 12:43:01;;;;;;;6.07;3.10;;;24.20;51.40;;;;;;5070877;28;20028;-87
2021/06/13 12:45:27;;;;;;;8.48;3.08;;;24.20;51.50;;;;;;5054264;28;20028;-87
2021/06/13 12:47:58;;;;;;;7.10;3.20;;;24.30;51.60;;;;;;5054065;28;20078;-88
2021/06/13 12:50:37;;;;;;;7.53;3.20;;;24.40;50.50;;;;;;5072232;28;20021;-87
2021/06/13 12:53:05;;;;;;;6.88;3.03;;;24.40;49.70;;;;;;5070811;28;20098;-88
2021/06/13 12:55:38;;;;;;;6.13;2.80;;;24.40;50.00;;;;;;5063766;28;20059;-87
2021/06/13 12:58:07;;;;;;;4.93;2.80;;;24.40;50.80;;;;;;5065457;28;20032;-88
2021/06/13 13:00:33;;;;;;;6.13;3.00;;;24.50;51.60;;;;;;5062865;28;20136;-88